sensor_id;sensor_type;location;lat;lon;timestamp;pressure;altitude;pressure_sealevel;temperature;humidity
21594;BME280;10959;51.328;7.322;2023-02-24T00:01:14;98567.66;;;8.23;83.54
21594;BME280;10959;51.328;7.322;2023-02-24T00:03:49;98565.66;;;8.28;83.38
21594;BME280;10959;51.328;7.322;2023-02-24T00:06:16;98560.16;;;8.31;83.28
21594;BME280;10959;51.328;7.322;2023-02-24T00:08:43;98560.59;;;8.22;82.92
21594;BME280;10959;51.328;7.322;2023-02-24T00:11:11;98554.09;;;8.27;83.36
21594;BME280;10959;51.328;7.322;2023-02-24T00:13:38;98550.56;;;8.25;83.36
21594;BME280;10959;51.328;7.322;2023-02-24T00:16:06;98542.75;;;8.21;83.46
21594;BME280;10959;51.328;7.322;2023-02-24T00:18:34;98550.09;;;8.16;83.08
21594;BME280;10959;51.328;7.322;2023-02-24T00:21:08;98552.38;;;8.04;83.72
21594;BME280;10959;51.328;7.322;2023-02-24T00:23:35;98544.44;;;8.23;83.49
21594;BME280;10959;51.328;7.322;2023-02-24T00:26:05;98552.25;;;8.28;83.24
21594;BME280;10959;51.328;7.322;2023-02-24T00:28:31;98546.78;;;8.10;82.81
21594;BME280;10959;51.328;7.322;2023-02-24T00:31:02;98543.94;;;7.93;82.69
21594;BME280;10959;51.328;7.322;2023-02-24T00:33:30;98533.34;;;7.90;83.43
21594;BME280;10959;51.328;7.322;2023-02-24T00:36:05;98531.94;;;7.81;83.08
21594;BME280;10959;51.328;7.322;2023-02-24T00:38:32;98538.56;;;7.93;83.63
21594;BME280;10959;51.328;7.322;2023-02-24T00:41:00;98532.34;;;7.92;82.84
21594;BME280;10959;51.328;7.322;2023-02-24T00:43:28;98531.72;;;7.86;83.04
21594;BME280;10959;51.328;7.322;2023-02-24T00:45:54;98524.66;;;7.85;82.68
21594;BME280;10959;51.328;7.322;2023-02-24T00:48:21;98515.91;;;7.79;82.48
21594;BME280;10959;51.328;7.322;2023-02-24T00:50:53;98519.16;;;7.88;82.59
21594;BME280;10959;51.328;7.322;2023-02-24T00:53:21;98520.50;;;7.98;82.59
21594;BME280;10959;51.328;7.322;2023-02-24T00:55:57;98512.97;;;7.86;82.20
21594;BME280;10959;51.328;7.322;2023-02-24T00:58:24;98504.25;;;8.01;82.25
21594;BME280;10959;51.328;7.322;2023-02-24T01:00:54;98499.78;;;8.02;81.69
21594;BME280;10959;51.328;7.322;2023-02-24T01:03:21;98497.03;;;8.03;81.84
21594;BME280;10959;51.328;7.322;2023-02-24T01:05:50;98500.38;;;8.08;82.03
21594;BME280;10959;51.328;7.322;2023-02-24T01:08:17;98498.38;;;8.13;81.60
21594;BME280;10959;51.328;7.322;2023-02-24T01:10:53;98495.44;;;7.99;81.28
21594;BME280;10959;51.328;7.322;2023-02-24T01:13:40;98486.16;;;8.06;81.99
21594;BME280;10959;51.328;7.322;2023-02-24T01:16:06;98485.09;;;8.10;81.58
21594;BME280;10959;51.328;7.322;2023-02-24T01:18:33;98489.50;;;8.11;81.14
21594;BME280;10959;51.328;7.322;2023-02-24T01:21:00;98492.53;;;8.04;81.00
21594;BME280;10959;51.328;7.322;2023-02-24T01:23:26;98487.91;;;7.87;80.90
21594;BME280;10959;51.328;7.322;2023-02-24T01:25:54;98489.53;;;7.70;81.06
21594;BME280;10959;51.328;7.322;2023-02-24T01:28:24;98486.81;;;7.50;81.89
21594;BME280;10959;51.328;7.322;2023-02-24T01:30:51;98481.47;;;7.50;81.83
21594;BME280;10959;51.328;7.322;2023-02-24T01:33:19;98479.72;;;7.49;82.08
21594;BME280;10959;51.328;7.322;2023-02-24T01:35:46;98481.19;;;7.56;82.50
21594;BME280;10959;51.328;7.322;2023-02-24T01:38:12;98474.25;;;7.52;82.11
21594;BME280;10959;51.328;7.322;2023-02-24T01:40:39;98477.34;;;7.63;81.78
21594;BME280;10959;51.328;7.322;2023-02-24T01:43:09;98480.81;;;7.65;81.46
21594;BME280;10959;51.328;7.322;2023-02-24T01:45:36;98474.31;;;7.71;81.61
21594;BME280;10959;51.328;7.322;2023-02-24T01:48:07;98469.94;;;7.68;81.58
21594;BME280;10959;51.328;7.322;2023-02-24T01:50:35;98459.03;;;7.73;81.49
21594;BME280;10959;51.328;7.322;2023-02-24T01:53:04;98465.22;;;7.75;81.19
21594;BME280;10959;51.328;7.322;2023-02-24T01:55:35;98469.56;;;7.77;81.02
21594;BME280;10959;51.328;7.322;2023-02-24T01:58:09;98462.31;;;7.59;80.88
21594;BME280;10959;51.328;7.322;2023-02-24T02:00:38;98457.56;;;7.66;81.30
21594;BME280;10959;51.328;7.322;2023-02-24T02:03:12;98456.56;;;7.68;80.85
21594;BME280;10959;51.328;7.322;2023-02-24T02:05:42;98456.34;;;7.73;80.83
21594;BME280;10959;51.328;7.322;2023-02-24T02:08:13;98453.59;;;7.74;80.29
21594;BME280;10959;51.328;7.322;2023-02-24T02:10:41;98449.19;;;7.73;80.70
21594;BME280;10959;51.328;7.322;2023-02-24T02:13:12;98450.91;;;7.74;80.18
21594;BME280;10959;51.328;7.322;2023-02-24T02:15:47;98448.72;;;7.64;80.09
21594;BME280;10959;51.328;7.322;2023-02-24T02:18:26;98441.41;;;7.67;80.06
21594;BME280;10959;51.328;7.322;2023-02-24T02:23:53;98431.63;;;7.46;80.21
21594;BME280;10959;51.328;7.322;2023-02-24T02:32:58;98410.66;;;6.92;80.01
21594;BME280;10959;51.328;7.322;2023-02-24T02:35:36;98414.50;;;7.07;79.97
21594;BME280;10959;51.328;7.322;2023-02-24T02:38:11;98403.94;;;7.04;79.81
21594;BME280;10959;51.328;7.322;2023-02-24T02:40:43;98398.31;;;7.10;79.77
21594;BME280;10959;51.328;7.322;2023-02-24T02:43:16;98393.72;;;7.14;80.50
21594;BME280;10959;51.328;7.322;2023-02-24T02:45:46;98386.22;;;7.22;80.80
21594;BME280;10959;51.328;7.322;2023-02-24T02:48:25;98382.22;;;7.12;79.98
21594;BME280;10959;51.328;7.322;2023-02-24T02:50:57;98381.09;;;7.16;80.30
21594;BME280;10959;51.328;7.322;2023-02-24T02:53:32;98380.25;;;7.15;79.83
21594;BME280;10959;51.328;7.322;2023-02-24T02:56:07;98375.66;;;7.19;79.82
21594;BME280;10959;51.328;7.322;2023-02-24T02:58:39;98368.41;;;7.21;79.79
21594;BME280;10959;51.328;7.322;2023-02-24T03:01:08;98371.63;;;7.29;79.90
21594;BME280;10959;51.328;7.322;2023-02-24T03:03:37;98365.38;;;7.29;79.63
21594;BME280;10959;51.328;7.322;2023-02-24T03:06:09;98361.44;;;7.17;79.12
21594;BME280;10959;51.328;7.322;2023-02-24T03:08:40;98359.59;;;7.19;79.38
21594;BME280;10959;51.328;7.322;2023-02-24T03:11:11;98363.31;;;7.15;78.93
21594;BME280;10959;51.328;7.322;2023-02-24T03:13:41;98353.63;;;7.12;79.50
21594;BME280;10959;51.328;7.322;2023-02-24T03:16:11;98356.22;;;7.14;79.20
21594;BME280;10959;51.328;7.322;2023-02-24T03:18:44;98345.78;;;7.07;79.08
21594;BME280;10959;51.328;7.322;2023-02-24T03:21:20;98352.66;;;6.92;78.72
21594;BME280;10959;51.328;7.322;2023-02-24T03:23:52;98346.16;;;6.98;79.24
21594;BME280;10959;51.328;7.322;2023-02-24T03:26:22;98342.69;;;6.96;78.75
21594;BME280;10959;51.328;7.322;2023-02-24T03:28:56;98339.06;;;6.97;78.96
21594;BME280;10959;51.328;7.322;2023-02-24T03:31:27;98335.31;;;7.01;79.13
21594;BME280;10959;51.328;7.322;2023-02-24T03:33:59;98334.59;;;6.98;79.43
21594;BME280;10959;51.328;7.322;2023-02-24T03:36:29;98338.69;;;7.06;79.73
21594;BME280;10959;51.328;7.322;2023-02-24T03:38:56;98345.59;;;7.12;79.83
21594;BME280;10959;51.328;7.322;2023-02-24T03:41:28;98340.03;;;7.17;79.07
21594;BME280;10959;51.328;7.322;2023-02-24T03:43:57;98331.06;;;7.18;79.26
21594;BME280;10959;51.328;7.322;2023-02-24T03:46:25;98330.91;;;7.21;79.26
21594;BME280;10959;51.328;7.322;2023-02-24T03:48:58;98323.81;;;7.20;79.27
21594;BME280;10959;51.328;7.322;2023-02-24T03:51:29;98321.97;;;7.22;79.01
21594;BME280;10959;51.328;7.322;2023-02-24T03:54:03;98329.31;;;7.17;79.15
21594;BME280;10959;51.328;7.322;2023-02-24T03:56:42;98322.34;;;7.13;79.07
21594;BME280;10959;51.328;7.322;2023-02-24T03:59:16;98334.94;;;7.11;79.01
21594;BME280;10959;51.328;7.322;2023-02-24T04:01:51;98332.13;;;7.14;78.66
21594;BME280;10959;51.328;7.322;2023-02-24T04:04:27;98328.97;;;7.04;78.40
21594;BME280;10959;51.328;7.322;2023-02-24T04:06:59;98329.09;;;7.01;78.67
21594;BME280;10959;51.328;7.322;2023-02-24T04:09:38;98323.41;;;6.88;79.14
21594;BME280;10959;51.328;7.322;2023-02-24T04:12:08;98320.00;;;7.05;79.53
21594;BME280;10959;51.328;7.322;2023-02-24T04:14:44;98323.56;;;7.05;79.46
21594;BME280;10959;51.328;7.322;2023-02-24T04:17:16;98322.47;;;7.09;79.48
21594;BME280;10959;51.328;7.322;2023-02-24T04:19:47;98315.28;;;7.12;79.45
21594;BME280;10959;51.328;7.322;2023-02-24T04:22:18;98320.72;;;7.08;78.70
21594;BME280;10959;51.328;7.322;2023-02-24T04:24:50;98311.78;;;7.09;79.17
21594;BME280;10959;51.328;7.322;2023-02-24T04:27:20;98319.03;;;7.07;78.93
21594;BME280;10959;51.328;7.322;2023-02-24T04:29:51;98316.41;;;7.06;79.11
21594;BME280;10959;51.328;7.322;2023-02-24T04:32:22;98313.91;;;7.01;79.45
21594;BME280;10959;51.328;7.322;2023-02-24T04:34:51;98310.97;;;7.07;79.57
21594;BME280;10959;51.328;7.322;2023-02-24T04:37:20;98309.91;;;7.12;79.08
21594;BME280;10959;51.328;7.322;2023-02-24T04:39:48;98311.78;;;7.09;78.59
21594;BME280;10959;51.328;7.322;2023-02-24T04:42:15;98303.06;;;7.04;78.54
21594;BME280;10959;51.328;7.322;2023-02-24T04:44:44;98301.47;;;7.00;78.60
21594;BME280;10959;51.328;7.322;2023-02-24T04:47:10;98299.59;;;7.02;78.85
21594;BME280;10959;51.328;7.322;2023-02-24T04:49:37;98290.50;;;7.06;78.58
21594;BME280;10959;51.328;7.322;2023-02-24T04:52:05;98293.97;;;7.08;78.66
21594;BME280;10959;51.328;7.322;2023-02-24T04:54:34;98293.97;;;7.08;78.35
21594;BME280;10959;51.328;7.322;2023-02-24T04:57:03;98289.69;;;7.04;78.39
21594;BME280;10959;51.328;7.322;2023-02-24T04:59:31;98289.81;;;7.01;78.46
21594;BME280;10959;51.328;7.322;2023-02-24T05:01:58;98283.69;;;6.99;78.42
21594;BME280;10959;51.328;7.322;2023-02-24T05:04:26;98285.53;;;6.97;78.26
21594;BME280;10959;51.328;7.322;2023-02-24T05:06:54;98274.81;;;6.97;78.76
21594;BME280;10959;51.328;7.322;2023-02-24T05:09:22;98280.06;;;7.00;78.51
21594;BME280;10959;51.328;7.322;2023-02-24T05:11:56;98269.47;;;6.97;78.76
21594;BME280;10959;51.328;7.322;2023-02-24T05:14:23;98275.44;;;7.04;78.78
21594;BME280;10959;51.328;7.322;2023-02-24T05:16:50;98274.44;;;7.06;78.92
21594;BME280;10959;51.328;7.322;2023-02-24T05:19:18;98268.25;;;7.04;78.15
21594;BME280;10959;51.328;7.322;2023-02-24T05:22:03;98260.66;;;6.95;78.13
21594;BME280;10959;51.328;7.322;2023-02-24T05:24:32;98262.53;;;6.93;78.08
21594;BME280;10959;51.328;7.322;2023-02-24T05:27:00;98260.78;;;6.92;77.25
21594;BME280;10959;51.328;7.322;2023-02-24T05:29:31;98252.22;;;6.84;77.50
21594;BME280;10959;51.328;7.322;2023-02-24T05:31:58;98248.63;;;6.85;77.58
21594;BME280;10959;51.328;7.322;2023-02-24T05:34:26;98250.28;;;6.87;77.90
21594;BME280;10959;51.328;7.322;2023-02-24T05:36:55;98248.47;;;6.88;77.79
21594;BME280;10959;51.328;7.322;2023-02-24T05:39:23;98241.22;;;6.90;78.19
21594;BME280;10959;51.328;7.322;2023-02-24T05:41:51;98237.78;;;6.88;77.84
21594;BME280;10959;51.328;7.322;2023-02-24T05:44:22;98241.66;;;6.81;77.44
21594;BME280;10959;51.328;7.322;2023-02-24T05:46:51;98240.78;;;6.80;77.32
21594;BME280;10959;51.328;7.322;2023-02-24T05:49:23;98230.81;;;6.84;77.60
21594;BME280;10959;51.328;7.322;2023-02-24T05:51:53;98237.91;;;6.85;77.49
21594;BME280;10959;51.328;7.322;2023-02-24T05:54:22;98227.19;;;6.85;78.24
21594;BME280;10959;51.328;7.322;2023-02-24T05:56:49;98225.47;;;6.84;78.20
21594;BME280;10959;51.328;7.322;2023-02-24T05:59:16;98223.56;;;6.86;78.29
21594;BME280;10959;51.328;7.322;2023-02-24T06:01:47;98220.09;;;6.84;78.20
21594;BME280;10959;51.328;7.322;2023-02-24T06:04:17;98220.88;;;6.86;78.26
21594;BME280;10959;51.328;7.322;2023-02-24T06:06:57;98219.19;;;6.85;78.28
21594;BME280;10959;51.328;7.322;2023-02-24T06:09:27;98212.75;;;6.89;77.70
21594;BME280;10959;51.328;7.322;2023-02-24T06:11:54;98204.91;;;6.84;77.85
21594;BME280;10959;51.328;7.322;2023-02-24T06:14:20;98196.69;;;6.89;78.19
21594;BME280;10959;51.328;7.322;2023-02-24T06:16:49;98207.41;;;6.89;77.91
21594;BME280;10959;51.328;7.322;2023-02-24T06:19:15;98191.47;;;6.86;77.61
21594;BME280;10959;51.328;7.322;2023-02-24T06:21:42;98194.94;;;6.88;77.78
21594;BME280;10959;51.328;7.322;2023-02-24T06:24:11;98191.47;;;6.86;78.00
21594;BME280;10959;51.328;7.322;2023-02-24T06:26:39;98190.53;;;6.87;77.89
21594;BME280;10959;51.328;7.322;2023-02-24T06:29:10;98186.25;;;6.83;77.77
21594;BME280;10959;51.328;7.322;2023-02-24T06:31:37;98190.53;;;6.87;77.76
21594;BME280;10959;51.328;7.322;2023-02-24T06:34:06;98180.91;;;6.83;77.44
21594;BME280;10959;51.328;7.322;2023-02-24T06:36:34;98188.91;;;6.83;77.98
21594;BME280;10959;51.328;7.322;2023-02-24T06:39:01;98188.84;;;6.84;77.55
21594;BME280;10959;51.328;7.322;2023-02-24T06:41:34;98186.09;;;6.86;77.92
21594;BME280;10959;51.328;7.322;2023-02-24T06:44:02;98194.13;;;6.86;77.84
21594;BME280;10959;51.328;7.322;2023-02-24T06:46:29;98188.13;;;6.81;77.49
21594;BME280;10959;51.328;7.322;2023-02-24T06:48:55;98183.72;;;6.80;77.39
21594;BME280;10959;51.328;7.322;2023-02-24T06:51:24;98182.84;;;6.79;77.00
21594;BME280;10959;51.328;7.322;2023-02-24T06:53:54;98179.28;;;6.79;77.28
21594;BME280;10959;51.328;7.322;2023-02-24T06:56:21;98158.03;;;6.75;77.38
21594;BME280;10959;51.328;7.322;2023-02-24T06:58:51;98174.91;;;6.78;76.47
21594;BME280;10959;51.328;7.322;2023-02-24T07:01:21;98173.69;;;6.64;75.42
21594;BME280;10959;51.328;7.322;2023-02-24T07:03:50;98167.81;;;6.56;75.29
21594;BME280;10959;51.328;7.322;2023-02-24T07:06:44;98179.09;;;6.42;75.62
21594;BME280;10959;51.328;7.322;2023-02-24T07:09:13;98178.22;;;6.42;74.85
21594;BME280;10959;51.328;7.322;2023-02-24T07:11:42;98177.69;;;6.33;74.90
21594;BME280;10959;51.328;7.322;2023-02-24T07:14:10;98171.34;;;6.36;75.78
21594;BME280;10959;51.328;7.322;2023-02-24T07:16:37;98161.25;;;6.43;75.84
21594;BME280;10959;51.328;7.322;2023-02-24T07:19:09;98165.47;;;6.48;76.28
21594;BME280;10959;51.328;7.322;2023-02-24T07:21:39;98167.94;;;6.53;76.67
21594;BME280;10959;51.328;7.322;2023-02-24T07:24:10;98160.88;;;6.52;76.52
21594;BME280;10959;51.328;7.322;2023-02-24T07:26:39;98160.59;;;6.58;76.73
21594;BME280;10959;51.328;7.322;2023-02-24T07:29:06;98166.72;;;6.60;76.41
21594;BME280;10959;51.328;7.322;2023-02-24T07:31:33;98154.22;;;6.61;76.77
21594;BME280;10959;51.328;7.322;2023-02-24T07:34:01;98156.84;;;6.62;76.15
21594;BME280;10959;51.328;7.322;2023-02-24T07:36:29;98146.13;;;6.62;76.34
21594;BME280;10959;51.328;7.322;2023-02-24T07:39:03;98147.13;;;6.60;75.98
21594;BME280;10959;51.328;7.322;2023-02-24T07:41:34;98143.94;;;6.51;74.92
21594;BME280;10959;51.328;7.322;2023-02-24T07:44:01;98133.38;;;6.48;75.88
21594;BME280;10959;51.328;7.322;2023-02-24T07:46:28;98132.22;;;6.54;76.16
21594;BME280;10959;51.328;7.322;2023-02-24T07:48:55;98114.31;;;6.56;76.07
21594;BME280;10959;51.328;7.322;2023-02-24T07:51:25;98121.53;;;6.54;76.25
21594;BME280;10959;51.328;7.322;2023-02-24T07:53:53;98112.44;;;6.58;76.76
21594;BME280;10959;51.328;7.322;2023-02-24T07:56:22;98108.69;;;6.62;76.26
21594;BME280;10959;51.328;7.322;2023-02-24T07:58:53;98109.56;;;6.63;76.46
21594;BME280;10959;51.328;7.322;2023-02-24T08:01:24;98099.59;;;6.66;76.08
21594;BME280;10959;51.328;7.322;2023-02-24T08:03:54;98100.44;;;6.67;76.33
21594;BME280;10959;51.328;7.322;2023-02-24T08:06:21;98098.44;;;6.72;76.21
21594;BME280;10959;51.328;7.322;2023-02-24T08:08:53;98093.81;;;6.75;76.58
21594;BME280;10959;51.328;7.322;2023-02-24T08:11:25;98091.94;;;6.78;76.62
21594;BME280;10959;51.328;7.322;2023-02-24T08:13:53;98092.81;;;6.78;75.91
21594;BME280;10959;51.328;7.322;2023-02-24T08:16:23;98081.25;;;6.78;76.51
21594;BME280;10959;51.328;7.322;2023-02-24T08:18:49;98082.97;;;6.79;76.34
21594;BME280;10959;51.328;7.322;2023-02-24T08:21:21;98063.16;;;6.83;76.73
21594;BME280;10959;51.328;7.322;2023-02-24T08:23:48;98073.41;;;6.73;75.93
21594;BME280;10959;51.328;7.322;2023-02-24T08:26:17;98075.28;;;6.71;75.71
21594;BME280;10959;51.328;7.322;2023-02-24T08:28:46;98078.19;;;6.66;75.56
21594;BME280;10959;51.328;7.322;2023-02-24T08:31:16;98073.63;;;6.68;75.68
21594;BME280;10959;51.328;7.322;2023-02-24T08:33:42;98061.31;;;6.64;75.81
21594;BME280;10959;51.328;7.322;2023-02-24T08:36:09;98062.00;;;6.69;76.13
21594;BME280;10959;51.328;7.322;2023-02-24T08:38:36;98049.13;;;6.78;75.87
21594;BME280;10959;51.328;7.322;2023-02-24T08:41:11;98041.38;;;6.71;75.87
21594;BME280;10959;51.328;7.322;2023-02-24T08:43:42;98043.50;;;6.84;76.30
21594;BME280;10959;51.328;7.322;2023-02-24T08:46:15;98032.09;;;6.80;76.07
21594;BME280;10959;51.328;7.322;2023-02-24T08:48:46;98040.09;;;6.80;75.77
21594;BME280;10959;51.328;7.322;2023-02-24T08:51:15;98048.69;;;6.68;74.78
21594;BME280;10959;51.328;7.322;2023-02-24T08:53:47;98044.19;;;6.68;75.15
21594;BME280;10959;51.328;7.322;2023-02-24T08:56:18;98044.50;;;6.62;74.22
21594;BME280;10959;51.328;7.322;2023-02-24T08:58:51;98034.09;;;6.56;74.21
21594;BME280;10959;51.328;7.322;2023-02-24T09:01:25;98028.84;;;6.53;75.01
21594;BME280;10959;51.328;7.322;2023-02-24T09:04:02;98036.22;;;6.48;73.34
21594;BME280;10959;51.328;7.322;2023-02-24T09:06:36;98029.28;;;6.44;74.18
21594;BME280;10959;51.328;7.322;2023-02-24T09:09:03;98030.31;;;6.60;75.11
21594;BME280;10959;51.328;7.322;2023-02-24T09:11:43;98019.34;;;6.66;75.44
21594;BME280;10959;51.328;7.322;2023-02-24T09:14:12;98014.69;;;6.51;72.89
21594;BME280;10959;51.328;7.322;2023-02-24T09:16:43;98008.03;;;6.40;73.07
21594;BME280;10959;51.328;7.322;2023-02-24T09:19:29;98008.19;;;6.37;73.04
21594;BME280;10959;51.328;7.322;2023-02-24T09:22:13;98013.09;;;6.47;73.84
21594;BME280;10959;51.328;7.322;2023-02-24T09:24:55;97995.03;;;6.52;74.31
21594;BME280;10959;51.328;7.322;2023-02-24T09:27:42;97992.84;;;6.41;73.21
21594;BME280;10959;51.328;7.322;2023-02-24T09:30:11;97990.63;;;6.51;73.73
21594;BME280;10959;51.328;7.322;2023-02-24T09:33:00;97984.00;;;6.20;71.83
21594;BME280;10959;51.328;7.322;2023-02-24T09:35:33;97990.16;;;6.22;72.44
21594;BME280;10959;51.328;7.322;2023-02-24T09:38:02;97978.66;;;6.20;72.87
21594;BME280;10959;51.328;7.322;2023-02-24T09:40:31;97982.53;;;6.13;71.64
21594;BME280;10959;51.328;7.322;2023-02-24T09:43:04;97989.63;;;6.14;72.66
21594;BME280;10959;51.328;7.322;2023-02-24T09:45:35;97980.09;;;6.27;73.36
21594;BME280;10959;51.328;7.322;2023-02-24T09:48:08;97982.69;;;6.29;72.57
21594;BME280;10959;51.328;7.322;2023-02-24T09:50:42;97974.34;;;6.36;73.37
21594;BME280;10959;51.328;7.322;2023-02-24T09:53:26;97973.91;;;6.46;73.68
21594;BME280;10959;51.328;7.322;2023-02-24T09:56:06;97964.50;;;6.37;72.49
21594;BME280;10959;51.328;7.322;2023-02-24T09:58:39;97966.25;;;6.38;71.41
21594;BME280;10959;51.328;7.322;2023-02-24T10:01:21;97960.06;;;6.37;72.43
21594;BME280;10959;51.328;7.322;2023-02-24T10:03:56;97950.50;;;6.51;71.47
21594;BME280;10959;51.328;7.322;2023-02-24T10:06:36;97959.69;;;6.45;72.02
21594;BME280;10959;51.328;7.322;2023-02-24T10:09:09;97951.22;;;6.35;70.69
21594;BME280;10959;51.328;7.322;2023-02-24T10:11:41;97947.16;;;6.46;71.98
21594;BME280;10959;51.328;7.322;2023-02-24T10:14:20;97951.91;;;6.20;68.48
21594;BME280;10959;51.328;7.322;2023-02-24T10:16:51;97938.16;;;6.09;68.88
21594;BME280;10959;51.328;7.322;2023-02-24T10:19:41;97931.38;;;6.01;70.66
21594;BME280;10959;51.328;7.322;2023-02-24T10:22:15;97926.91;;;6.02;71.29
21594;BME280;10959;51.328;7.322;2023-02-24T10:24:57;97920.88;;;6.17;71.40
21594;BME280;10959;51.328;7.322;2023-02-24T10:27:40;97917.97;;;6.22;71.81
21594;BME280;10959;51.328;7.322;2023-02-24T10:30:12;97922.31;;;6.25;70.64
21594;BME280;10959;51.328;7.322;2023-02-24T10:32:47;97911.97;;;6.17;70.53
21594;BME280;10959;51.328;7.322;2023-02-24T10:35:17;97915.69;;;6.33;70.84
21594;BME280;10959;51.328;7.322;2023-02-24T10:37:45;97913.47;;;6.42;71.15
21594;BME280;10959;51.328;7.322;2023-02-24T10:40:14;97915.22;;;6.43;71.26
21594;BME280;10959;51.328;7.322;2023-02-24T10:42:51;97910.75;;;6.43;71.75
21594;BME280;10959;51.328;7.322;2023-02-24T10:45:29;97905.81;;;6.53;71.39
21594;BME280;10959;51.328;7.322;2023-02-24T10:47:57;97899.34;;;6.39;70.38
21594;BME280;10959;51.328;7.322;2023-02-24T10:50:26;97898.81;;;6.31;70.85
21594;BME280;10959;51.328;7.322;2023-02-24T10:53:01;97896.81;;;6.17;71.42
21594;BME280;10959;51.328;7.322;2023-02-24T10:55:50;97892.38;;;6.35;71.85
21594;BME280;10959;51.328;7.322;2023-02-24T10:58:39;97882.88;;;6.49;72.06
21594;BME280;10959;51.328;7.322;2023-02-24T11:01:13;97880.13;;;6.50;71.62
21594;BME280;10959;51.328;7.322;2023-02-24T11:03:50;97878.38;;;6.49;71.84
21594;BME280;10959;51.328;7.322;2023-02-24T11:06:27;97869.97;;;6.57;72.35
21594;BME280;10959;51.328;7.322;2023-02-24T11:09:20;97870.78;;;6.59;72.57
21594;BME280;10959;51.328;7.322;2023-02-24T11:12:05;97855.34;;;6.64;73.04
21594;BME280;10959;51.328;7.322;2023-02-24T11:14:57;97856.66;;;6.74;72.95
21594;BME280;10959;51.328;7.322;2023-02-24T11:17:46;97853.31;;;6.69;73.29
21594;BME280;10959;51.328;7.322;2023-02-24T11:20:22;97856.94;;;6.68;72.59
21594;BME280;10959;51.328;7.322;2023-02-24T11:22:52;97846.72;;;6.77;72.73
21594;BME280;10959;51.328;7.322;2023-02-24T11:25:23;97839.09;;;6.69;73.14
21594;BME280;10959;51.328;7.322;2023-02-24T11:27:51;97839.88;;;6.71;73.72
21594;BME280;10959;51.328;7.322;2023-02-24T11:30:25;97825.00;;;6.65;73.41
21594;BME280;10959;51.328;7.322;2023-02-24T11:33:14;97813.47;;;6.46;73.92
21594;BME280;10959;51.328;7.322;2023-02-24T11:35:47;97816.31;;;6.60;74.46
21594;BME280;10959;51.328;7.322;2023-02-24T11:38:25;97805.50;;;6.63;74.31
21594;BME280;10959;51.328;7.322;2023-02-24T11:41:02;97799.97;;;6.66;74.80
21594;BME280;10959;51.328;7.322;2023-02-24T11:43:33;97799.34;;;6.79;74.87
21594;BME280;10959;51.328;7.322;2023-02-24T11:46:06;97796.06;;;6.73;74.87
21594;BME280;10959;51.328;7.322;2023-02-24T11:48:38;97777.25;;;6.75;75.28
21594;BME280;10959;51.328;7.322;2023-02-24T11:51:10;97778.09;;;6.75;74.87
21594;BME280;10959;51.328;7.322;2023-02-24T11:53:44;97776.06;;;6.81;75.53
21594;BME280;10959;51.328;7.322;2023-02-24T11:56:17;97768.81;;;6.83;75.45
21594;BME280;10959;51.328;7.322;2023-02-24T11:58:49;97753.72;;;6.82;75.73
21594;BME280;10959;51.328;7.322;2023-02-24T12:01:22;97751.19;;;6.79;75.97
21594;BME280;10959;51.328;7.322;2023-02-24T12:03:59;97755.00;;;6.74;75.82
21594;BME280;10959;51.328;7.322;2023-02-24T12:06:32;97748.75;;;6.74;76.19
21594;BME280;10959;51.328;7.322;2023-02-24T12:09:06;97747.91;;;6.73;76.44
21594;BME280;10959;51.328;7.322;2023-02-24T12:11:44;97746.16;;;6.72;76.62
21594;BME280;10959;51.328;7.322;2023-02-24T12:14:20;97746.72;;;6.79;76.19
21594;BME280;10959;51.328;7.322;2023-02-24T12:16:54;97743.88;;;6.82;76.07
21594;BME280;10959;51.328;7.322;2023-02-24T12:19:28;97734.66;;;6.88;76.45
21594;BME280;10959;51.328;7.322;2023-02-24T12:22:00;97733.66;;;6.90;76.22
21594;BME280;10959;51.328;7.322;2023-02-24T12:24:30;97733.72;;;6.89;76.53
21594;BME280;10959;51.328;7.322;2023-02-24T12:27:05;97734.28;;;6.78;75.98
21594;BME280;10959;51.328;7.322;2023-02-24T12:29:49;97737.81;;;6.61;75.98
21594;BME280;10959;51.328;7.322;2023-02-24T12:32:23;97735.47;;;6.72;76.34
21594;BME280;10959;51.328;7.322;2023-02-24T12:35:01;97721.47;;;6.67;76.81
21594;BME280;10959;51.328;7.322;2023-02-24T12:37:54;97723.97;;;6.53;76.85
21594;BME280;10959;51.328;7.322;2023-02-24T12:40:29;97715.25;;;6.67;77.00
21594;BME280;10959;51.328;7.322;2023-02-24T12:43:10;97712.97;;;6.59;76.95
21594;BME280;10959;51.328;7.322;2023-02-24T12:45:48;97709.03;;;6.66;77.04
21594;BME280;10959;51.328;7.322;2023-02-24T12:48:30;97699.34;;;6.64;77.22
21594;BME280;10959;51.328;7.322;2023-02-24T12:51:04;97699.41;;;6.80;77.42
21594;BME280;10959;51.328;7.322;2023-02-24T12:53:41;97694.41;;;6.73;77.26
21594;BME280;10959;51.328;7.322;2023-02-24T12:56:14;97681.88;;;6.74;76.85
21594;BME280;10959;51.328;7.322;2023-02-24T12:58:47;97687.63;;;6.66;77.02
21594;BME280;10959;51.328;7.322;2023-02-24T13:01:21;97685.81;;;6.67;77.25
21594;BME280;10959;51.328;7.322;2023-02-24T13:03:57;97673.31;;;6.67;77.63
21594;BME280;10959;51.328;7.322;2023-02-24T13:06:32;97677.53;;;6.71;77.66
21594;BME280;10959;51.328;7.322;2023-02-24T13:09:07;97665.91;;;6.72;77.59
21594;BME280;10959;51.328;7.322;2023-02-24T13:11:42;97657.78;;;6.74;77.26
21594;BME280;10959;51.328;7.322;2023-02-24T13:14:20;97660.09;;;6.64;77.63
21594;BME280;10959;51.328;7.322;2023-02-24T13:16:49;97656.13;;;6.71;77.89
21594;BME280;10959;51.328;7.322;2023-02-24T13:19:20;97655.84;;;6.60;77.94
21594;BME280;10959;51.328;7.322;2023-02-24T13:21:55;97656.50;;;6.48;78.33
21594;BME280;10959;51.328;7.322;2023-02-24T13:24:23;97650.66;;;6.57;78.18
21594;BME280;10959;51.328;7.322;2023-02-24T13:26:50;97646.34;;;6.54;78.21
21594;BME280;10959;51.328;7.322;2023-02-24T13:29:18;97643.97;;;6.48;78.25
21594;BME280;10959;51.328;7.322;2023-02-24T13:31:46;97636.50;;;6.55;78.42
21594;BME280;10959;51.328;7.322;2023-02-24T13:34:28;97628.59;;;6.36;78.29
21594;BME280;10959;51.328;7.322;2023-02-24T13:36:56;97634.78;;;6.54;78.32
21594;BME280;10959;51.328;7.322;2023-02-24T13:39:24;97621.47;;;6.52;78.15
21594;BME280;10959;51.328;7.322;2023-02-24T13:42:04;97619.53;;;6.38;78.34
21594;BME280;10959;51.328;7.322;2023-02-24T13:44:32;97616.97;;;6.53;78.85